createdAt,value
2017-10-26T00:07:40.000Z,1017.228
2017-10-26T00:17:40.000Z,1017.106
2017-10-26T00:27:40.000Z,1017.187
2017-10-26T00:37:40.000Z,1017.252
2017-10-26T00:47:40.000Z,1017.169
2017-10-26T00:57:40.000Z,1017.185
2017-10-26T01:07:40.000Z,1017.153
2017-10-26T01:17:40.000Z,1017.197
2017-10-26T01:27:40.000Z,1017.043
2017-10-26T01:37:40.000Z,1017.098
2017-10-26T01:47:40.000Z,1017.165
2017-10-26T01:57:40.000Z,1017.053
2017-10-26T02:17:40.000Z,1017.089
2017-10-26T02:27:40.000Z,1016.991
2017-10-26T02:37:40.000Z,1016.806
2017-10-26T02:47:40.000Z,1016.811
2017-10-26T02:57:40.000Z,1016.773
2017-10-26T03:07:40.000Z,1016.736
2017-10-26T03:17:40.000Z,1016.702
2017-10-26T03:27:40.000Z,1016.858
2017-10-26T03:37:40.000Z,1016.933
2017-10-26T03:47:40.000Z,1017.01
2017-10-26T03:57:41.000Z,1016.865
2017-10-26T04:07:40.000Z,1016.841
2017-10-26T04:17:40.000Z,1016.905
2017-10-26T04:27:40.000Z,1016.807
2017-10-26T04:37:40.000Z,1016.708
2017-10-26T04:47:40.000Z,1016.727
2017-10-26T04:57:40.000Z,1016.738
2017-10-26T05:07:43.000Z,1016.766
2017-10-26T05:17:41.000Z,1016.648
2017-10-26T05:27:41.000Z,1016.702
2017-10-26T05:37:41.000Z,1016.533
2017-10-26T05:47:41.000Z,1016.431
2017-10-26T05:57:41.000Z,1016.493
2017-10-26T06:07:41.000Z,1016.335
2017-10-26T06:17:41.000Z,1016.435
2017-10-26T06:27:41.000Z,1016.517
2017-10-26T06:37:41.000Z,1016.629
2017-10-26T06:47:41.000Z,1016.761
2017-10-26T06:57:41.000Z,1017.104
2017-10-26T07:07:41.000Z,1017.123
2017-10-26T07:17:41.000Z,1017.114
2017-10-26T07:27:41.000Z,1016.939
2017-10-26T07:37:41.000Z,1016.866
2017-10-26T07:47:41.000Z,1016.755
2017-10-26T07:57:41.000Z,1016.806
2017-10-26T08:07:41.000Z,1016.838
2017-10-26T08:17:41.000Z,1016.913
2017-10-26T08:27:41.000Z,1016.792
2017-10-26T08:37:41.000Z,1016.635
2017-10-26T08:47:41.000Z,1016.725
2017-10-26T08:57:41.000Z,1016.628
2017-10-26T09:07:41.000Z,1016.758
2017-10-26T09:17:41.000Z,1016.824
2017-10-26T09:27:41.000Z,1016.812
2017-10-26T09:37:41.000Z,1016.729
2017-10-26T09:47:41.000Z,1016.826
2017-10-26T09:57:41.000Z,1016.809
2017-10-26T10:07:41.000Z,1016.811
2017-10-26T10:17:43.000Z,1016.854
2017-10-26T10:27:41.000Z,1016.883
2017-10-26T10:37:41.000Z,1016.798
2017-10-26T10:47:41.000Z,1016.721
2017-10-26T10:57:41.000Z,1016.508
2017-10-26T11:07:41.000Z,1016.388
2017-10-26T11:17:41.000Z,1016.313
2017-10-26T11:27:41.000Z,1016.231
2017-10-26T11:37:41.000Z,1016.152
2017-10-26T11:47:41.000Z,1016.133
2017-10-26T11:57:41.000Z,1016.166
2017-10-26T12:07:41.000Z,1016.057
2017-10-26T12:17:41.000Z,1015.836
2017-10-26T12:27:41.000Z,1015.759
2017-10-26T12:37:41.000Z,1015.873
2017-10-26T12:47:41.000Z,1015.723
2017-10-26T12:57:41.000Z,1015.696
2017-10-26T13:07:41.000Z,1015.708
2017-10-26T13:17:41.000Z,1015.672
2017-10-26T13:27:42.000Z,1015.644
2017-10-26T13:37:42.000Z,1015.305
2017-10-26T13:47:42.000Z,1015.326
2017-10-26T13:57:42.000Z,1015.388
2017-10-26T14:07:42.000Z,1015.43
2017-10-26T14:17:42.000Z,1015.51
2017-10-26T14:27:42.000Z,1015.486
2017-10-26T14:37:42.000Z,1015.47
2017-10-26T14:47:42.000Z,1015.322
2017-10-26T14:57:42.000Z,1015.144
2017-10-26T15:07:42.000Z,1015.151
2017-10-26T15:17:42.000Z,1015.281
2017-10-26T15:27:42.000Z,1015.279
2017-10-26T15:37:42.000Z,1015.154
2017-10-26T15:47:43.000Z,1015.274
2017-10-26T15:57:42.000Z,1015.349
2017-10-26T16:07:42.000Z,1015.189
2017-10-26T16:17:42.000Z,1015.157
2017-10-26T16:27:42.000Z,1015.092
2017-10-26T16:47:42.000Z,1015.047
2017-10-26T16:57:42.000Z,1015.308
2017-10-26T17:07:42.000Z,1014.986
2017-10-26T17:17:42.000Z,1014.972
2017-10-26T17:27:43.000Z,1014.95
2017-10-26T17:37:43.000Z,1014.899
2017-10-26T17:47:42.000Z,1014.921
2017-10-26T17:57:42.000Z,1014.984
2017-10-26T18:17:42.000Z,1014.944
2017-10-26T18:27:42.000Z,1014.973
2017-10-26T18:37:42.000Z,1015.096
2017-10-26T18:47:44.000Z,1015.112
2017-10-26T18:57:42.000Z,1014.969
2017-10-26T19:07:42.000Z,1015.042
2017-10-26T19:17:42.000Z,1015.025
2017-10-26T19:27:42.000Z,1014.879
2017-10-26T19:37:42.000Z,1014.878
2017-10-26T19:47:42.000Z,1014.904
2017-10-26T19:57:42.000Z,1014.606
2017-10-26T20:07:43.000Z,1014.679
2017-10-26T20:17:42.000Z,1014.777
2017-10-26T20:27:42.000Z,1014.757
2017-10-26T20:37:42.000Z,1014.642
2017-10-26T20:47:42.000Z,1014.701
2017-10-26T20:57:42.000Z,1014.716
2017-10-26T21:17:42.000Z,1014.653
2017-10-26T21:27:42.000Z,1014.74
2017-10-26T21:37:42.000Z,1014.563
2017-10-26T21:47:42.000Z,1014.629
2017-10-26T21:57:42.000Z,1014.57
2017-10-26T22:07:43.000Z,1014.496
2017-10-26T22:17:43.000Z,1014.479
2017-10-26T22:27:45.000Z,1014.377
2017-10-26T22:37:43.000Z,1014.398
2017-10-26T22:47:43.000Z,1014.299
2017-10-26T22:57:43.000Z,1014.451
2017-10-26T23:07:46.000Z,1014.447
2017-10-26T23:17:43.000Z,1014.35
2017-10-26T23:27:44.000Z,1014.332
2017-10-26T23:37:43.000Z,1014.524
2017-10-26T23:47:43.000Z,1014.612
2017-10-26T23:57:43.000Z,1014.566
